createdAt,value
2018-09-01T00:01:30.471Z,69.76
2018-09-01T00:06:27.903Z,69.64
2018-09-01T00:11:25.303Z,71.46
2018-09-01T00:16:22.980Z,71.36
2018-09-01T00:21:20.483Z,70.82
2018-09-01T00:26:17.894Z,71.66
2018-09-01T00:31:15.343Z,71.79
2018-09-01T00:36:12.716Z,71.59
2018-09-01T00:41:10.203Z,71.62
2018-09-01T00:46:07.694Z,70.04
2018-09-01T00:51:05.085Z,72.74
2018-09-01T00:56:02.604Z,74.50
2018-09-01T01:01:00.009Z,75.00
2018-09-01T01:05:57.405Z,75.23
2018-09-01T01:10:54.822Z,77.38
2018-09-01T01:15:52.339Z,77.44
2018-09-01T01:20:49.730Z,79.54
2018-09-01T01:25:47.370Z,79.86
2018-09-01T01:30:44.859Z,80.45
2018-09-01T01:35:42.275Z,81.63
2018-09-01T01:40:39.664Z,82.09
2018-09-01T01:45:37.687Z,81.43
2018-09-01T01:50:35.078Z,82.79
2018-09-01T01:55:32.463Z,83.60
2018-09-01T02:00:29.844Z,84.08
2018-09-01T02:05:31.115Z,83.84
2018-09-01T02:10:28.498Z,84.57
2018-09-01T02:15:25.903Z,85.97
2018-09-01T02:20:23.336Z,86.30
2018-09-01T02:25:20.752Z,86.94
2018-09-01T02:30:18.126Z,87.50
2018-09-01T02:35:15.503Z,85.44
2018-09-01T02:40:12.971Z,86.35
2018-09-01T02:45:11.291Z,86.92
2018-09-01T02:50:09.756Z,87.19
2018-09-01T02:55:07.175Z,87.76
2018-09-01T03:00:37.539Z,87.88
2018-09-01T03:05:34.919Z,89.19
2018-09-01T03:10:32.299Z,88.00
2018-09-01T03:15:29.674Z,87.43
2018-09-01T03:20:27.072Z,87.78
2018-09-01T03:25:24.458Z,89.61
2018-09-01T03:30:21.837Z,90.46
2018-09-01T03:35:19.215Z,90.70
2018-09-01T03:40:16.605Z,89.78
2018-09-01T03:45:14.022Z,90.35
2018-09-01T03:50:12.046Z,90.75
2018-09-01T03:55:09.469Z,91.19
2018-09-01T04:00:06.958Z,91.42
2018-09-01T04:05:04.810Z,90.28
2018-09-01T04:10:02.228Z,91.47
2018-09-01T04:14:59.614Z,91.35
2018-09-01T04:19:58.070Z,92.01
2018-09-01T04:24:55.484Z,92.32
2018-09-01T04:29:53.358Z,92.19
2018-09-01T04:34:50.760Z,92.17
2018-09-01T04:39:48.151Z,91.65
2018-09-01T04:44:45.589Z,91.70
2018-09-01T04:49:45.697Z,91.74
2018-09-01T04:54:43.236Z,90.83
2018-09-01T04:59:40.691Z,90.20
2018-09-01T05:04:38.080Z,90.76
2018-09-01T05:09:35.490Z,90.05
2018-09-01T05:14:32.880Z,90.30
2018-09-01T05:19:37.103Z,88.79
2018-09-01T05:24:34.548Z,90.28
2018-09-01T05:29:32.015Z,89.06
2018-09-01T05:34:29.666Z,76.56
2018-09-01T05:39:27.116Z,70.51
2018-09-01T05:44:24.531Z,64.76
2018-09-01T05:49:27.662Z,59.80
2018-09-01T05:54:25.192Z,55.87
2018-09-01T05:59:22.999Z,61.28
2018-09-01T06:04:20.444Z,57.59
2018-09-01T06:09:17.831Z,60.08
2018-09-01T06:14:15.234Z,63.90
2018-09-01T06:19:13.213Z,67.40
2018-09-01T06:24:10.792Z,68.73
2018-09-01T06:29:10.866Z,70.49
2018-09-01T06:34:08.322Z,72.41
2018-09-01T06:39:06.479Z,73.52
2018-09-01T06:44:05.606Z,73.22
2018-09-01T06:49:03.248Z,71.42
2018-09-01T06:54:00.672Z,74.23
2018-09-01T06:58:58.127Z,74.06
2018-09-01T07:03:55.539Z,73.79
2018-09-01T07:08:53.016Z,71.62
2018-09-01T07:13:50.399Z,70.44
2018-09-01T07:18:47.886Z,69.82
2018-09-01T07:23:45.267Z,70.70
2018-09-01T07:28:44.744Z,72.19
2018-09-01T07:33:42.147Z,69.49
2018-09-01T07:38:49.069Z,70.00
2018-09-01T07:43:50.489Z,67.53
2018-09-01T07:48:55.177Z,68.27
2018-09-01T07:53:52.651Z,69.57
2018-09-01T07:58:50.625Z,70.27
2018-09-01T08:03:48.156Z,70.01
2018-09-01T08:08:45.606Z,69.77
2018-09-01T08:13:43.153Z,66.43
2018-09-01T08:18:40.512Z,66.51
2018-09-01T08:23:38.422Z,67.23
2018-09-01T08:28:35.999Z,66.10
2018-09-01T08:33:33.419Z,66.01
2018-09-01T08:38:30.823Z,66.31
2018-09-01T08:43:28.215Z,65.19
2018-09-01T08:48:25.642Z,62.65
2018-09-01T08:53:24.248Z,61.96
2018-09-01T08:58:24.130Z,59.72
2018-09-01T09:03:21.604Z,55.70
2018-09-01T09:08:19.018Z,58.35
2018-09-01T09:13:16.435Z,59.63
2018-09-01T09:18:13.819Z,60.67
2018-09-01T09:23:11.261Z,57.25
2018-09-01T09:28:08.659Z,58.22
2018-09-01T09:33:07.600Z,60.23
2018-09-01T09:38:08.180Z,62.33
2018-09-01T09:43:11.418Z,60.86
2018-09-01T09:48:08.910Z,60.97
2018-09-01T09:53:06.409Z,61.47
2018-09-01T09:58:04.108Z,62.35
2018-09-01T10:03:01.891Z,58.09
2018-09-01T10:07:59.355Z,51.99
2018-09-01T10:12:56.796Z,53.09
2018-09-01T10:17:54.299Z,52.47
2018-09-01T10:22:52.311Z,51.15
2018-09-01T10:27:49.738Z,56.14
2018-09-01T10:32:47.174Z,58.84
2018-09-01T10:37:44.672Z,60.49
2018-09-01T10:42:42.092Z,59.14
2018-09-01T10:47:40.089Z,57.84
2018-09-01T10:52:38.333Z,57.09
2018-09-01T10:57:36.306Z,52.26
2018-09-01T11:02:33.719Z,49.30
2018-09-01T11:07:31.767Z,48.52
2018-09-01T11:12:29.271Z,50.28
2018-09-01T11:17:26.684Z,48.32
2018-09-01T11:22:24.287Z,51.55
2018-09-01T11:27:22.349Z,49.57
2018-09-01T11:32:19.763Z,51.22
2018-09-01T11:37:17.147Z,51.94
2018-09-01T11:42:14.539Z,50.13
2018-09-01T11:47:12.718Z,49.91
2018-09-01T11:52:10.124Z,46.11
2018-09-01T11:57:07.672Z,46.52
2018-09-01T12:02:05.203Z,41.95
2018-09-01T12:07:02.639Z,43.43
2018-09-01T12:12:00.067Z,46.67
2018-09-01T12:16:57.483Z,46.81
2018-09-01T12:21:54.924Z,46.24
2018-09-01T12:26:52.303Z,46.95
2018-09-01T12:31:49.703Z,47.99
2018-09-01T12:36:47.117Z,49.02
2018-09-01T12:41:44.530Z,48.14
2018-09-01T12:46:42.231Z,46.63
2018-09-01T12:51:39.654Z,46.93
2018-09-01T12:56:37.865Z,47.56
2018-09-01T13:01:35.567Z,48.49
2018-09-01T13:06:33.076Z,48.06
2018-09-01T13:11:30.503Z,48.04
2018-09-01T13:16:28.047Z,44.77
2018-09-01T13:21:25.518Z,43.11
2018-09-01T13:26:22.938Z,41.93
2018-09-01T13:31:20.424Z,41.73
2018-09-01T13:36:17.857Z,41.47
2018-09-01T13:41:15.915Z,37.47
2018-09-01T13:46:13.407Z,42.73
2018-09-01T13:51:10.858Z,46.16
2018-09-01T13:56:08.266Z,46.35
2018-09-01T14:01:05.697Z,46.28
2018-09-01T14:06:03.225Z,48.65
2018-09-01T14:11:00.618Z,49.17
2018-09-01T14:15:58.010Z,49.99
2018-09-01T14:20:55.427Z,46.88
2018-09-01T14:25:52.839Z,43.90
2018-09-01T14:30:50.495Z,45.26
2018-09-01T14:35:48.093Z,48.75
2018-09-01T14:40:45.878Z,47.82
2018-09-01T14:45:43.294Z,46.88
2018-09-01T14:50:40.732Z,47.53
2018-09-01T14:55:38.715Z,44.36
2018-09-01T15:00:36.255Z,44.10
2018-09-01T15:05:33.947Z,45.69
2018-09-01T15:10:31.324Z,46.87
2018-09-01T15:15:31.281Z,48.91
2018-09-01T15:20:33.568Z,48.87
2018-09-01T15:25:31.702Z,48.68
2018-09-01T15:30:31.778Z,48.97
2018-09-01T15:35:29.464Z,47.38
2018-09-01T15:40:27.407Z,46.19
2018-09-01T15:45:31.097Z,45.22
2018-09-01T15:50:34.750Z,43.89
2018-09-01T15:55:32.314Z,43.86
2018-09-01T16:00:30.245Z,43.74
2018-09-01T16:05:28.046Z,42.42
2018-09-01T16:10:26.929Z,43.12
2018-09-01T16:15:28.132Z,44.38
2018-09-01T16:20:30.231Z,47.53
2018-09-01T16:25:31.379Z,49.84
2018-09-01T16:30:28.890Z,47.83
2018-09-01T16:35:26.311Z,48.39
2018-09-01T16:40:25.015Z,47.13
2018-09-01T16:45:23.331Z,47.45
2018-09-01T16:50:22.894Z,45.98
2018-09-01T16:55:21.811Z,46.64
2018-09-01T17:00:21.042Z,46.90
2018-09-01T17:05:18.588Z,47.36
2018-09-01T17:10:18.010Z,47.94
2018-09-01T17:15:15.627Z,47.23
2018-09-01T17:20:14.054Z,49.15
2018-09-01T17:25:11.448Z,52.00
2018-09-01T17:30:08.955Z,51.43
2018-09-01T17:35:06.378Z,52.77
2018-09-01T17:40:03.863Z,52.79
2018-09-01T17:45:01.298Z,55.92
2018-09-01T17:49:59.977Z,56.13
2018-09-01T17:54:57.471Z,56.59
2018-09-01T17:59:54.899Z,57.72
2018-09-01T18:04:52.608Z,59.00
2018-09-01T18:09:50.215Z,59.44
2018-09-01T18:14:47.636Z,59.89
2018-09-01T18:19:50.779Z,60.52
2018-09-01T18:24:48.214Z,61.77
2018-09-01T18:29:49.314Z,62.18
2018-09-01T18:34:54.423Z,62.73
2018-09-01T18:39:52.527Z,63.91
2018-09-01T18:44:49.963Z,64.05
2018-09-01T18:49:56.333Z,64.87
2018-09-01T18:54:54.474Z,65.05
2018-09-01T18:59:51.908Z,65.73
2018-09-01T19:04:49.428Z,66.47
2018-09-01T19:09:46.755Z,66.91
2018-09-01T19:14:44.179Z,66.65
2018-09-01T19:19:47.915Z,67.28
2018-09-01T19:24:45.423Z,66.87
2018-09-01T19:29:42.807Z,68.03
2018-09-01T19:34:40.303Z,67.26
2018-09-01T19:39:37.745Z,67.30
2018-09-01T19:44:35.226Z,67.31
2018-09-01T19:49:36.628Z,67.91
2018-09-01T19:54:34.355Z,67.18
2018-09-01T19:59:33.618Z,68.08
2018-09-01T20:04:31.325Z,68.54
2018-09-01T20:09:28.725Z,68.64
2018-09-01T20:14:26.303Z,68.04
2018-09-01T20:19:30.431Z,69.14
2018-09-01T20:24:27.866Z,68.80
2018-09-01T20:29:25.337Z,69.26
2018-09-01T20:34:22.718Z,69.16
2018-09-01T20:39:25.555Z,70.92
2018-09-01T20:44:22.955Z,69.86
2018-09-01T20:49:25.188Z,70.45
2018-09-01T20:54:22.759Z,71.27
2018-09-01T20:59:20.176Z,71.98
2018-09-01T21:04:17.685Z,71.97
2018-09-01T21:09:15.043Z,72.09
2018-09-01T21:14:12.489Z,72.56
2018-09-01T21:19:09.947Z,73.18
2018-09-01T21:24:07.339Z,73.11
2018-09-01T21:29:04.816Z,73.77
2018-09-01T21:34:02.182Z,73.39
2018-09-01T21:38:59.566Z,72.99
2018-09-01T21:43:56.990Z,73.31
2018-09-01T21:48:54.466Z,73.37
2018-09-01T21:53:51.871Z,73.43
2018-09-01T21:58:49.334Z,73.63
2018-09-01T22:03:47.156Z,73.69
2018-09-01T22:08:44.530Z,73.41
2018-09-01T22:13:42.681Z,72.74
2018-09-01T22:18:40.047Z,73.16
2018-09-01T22:23:37.752Z,72.44
2018-09-01T22:28:35.303Z,72.82
2018-09-01T22:33:32.691Z,72.33
2018-09-01T22:38:30.523Z,72.27
2018-09-01T22:43:28.489Z,72.55
2018-09-01T22:48:25.956Z,72.22
2018-09-01T22:53:23.347Z,73.04
2018-09-01T22:58:21.338Z,72.73
2018-09-01T23:03:18.719Z,73.08
2018-09-01T23:08:16.139Z,72.60
2018-09-01T23:13:14.101Z,72.80
2018-09-01T23:18:11.476Z,73.68
2018-09-01T23:23:08.883Z,73.10
2018-09-01T23:28:06.267Z,73.87
2018-09-01T23:33:03.651Z,73.52
2018-09-01T23:38:01.066Z,73.96
2018-09-01T23:42:58.436Z,73.98
2018-09-01T23:47:55.822Z,74.43
2018-09-01T23:52:53.225Z,74.44
2018-09-01T23:57:50.607Z,74.69
